Time;durP1;ratioP1;P1;durP2;ratioP2;P2;SDS_P1;SDS_P2;PMS_P1;PMS_P2;Temp;Humidity;BMP_temperature;BMP_pressure;BME280_temperature;BME280_humidity;BME280_pressure;Samples;Min_cycle;Max_cycle;Signal;HPM_P1;HPM_P2
2024/01/11 00:00:28;;;;;;;145.40;72.20;;;;;;;-11.11;66.31;98359.91;104982;1266;96085;-75
2024/01/11 00:03:16;;;;;;;147.70;70.80;;;;;;;-11.09;66.35;98354.83;104927;1266;102440;-76
2024/01/11 00:05:44;;;;;;;231.90;98.40;;;;;;;-11.09;66.25;98348.38;104953;1266;109459;-76
2024/01/11 00:08:12;;;;;;;236.10;108.40;;;;;;;-11.06;66.07;98351.73;105099;1274;107410;-76
2024/01/11 00:10:39;;;;;;;240.10;97.70;;;;;;;-11.12;66.07;98342.23;104979;1266;96786;-76
2024/01/11 00:13:07;;;;;;;214.70;90.00;;;;;;;-11.17;66.02;98340.00;104942;1267;96683;-75
2024/01/11 00:15:35;;;;;;;206.20;93.00;;;;;;;-11.22;65.93;98339.28;105207;1257;108399;-75
2024/01/11 00:18:03;;;;;;;188.10;92.60;;;;;;;-11.20;66.07;98342.34;105028;1257;102082;-76
2024/01/11 00:20:31;;;;;;;198.40;92.10;;;;;;;-11.20;66.10;98333.15;105121;1266;107771;-76
2024/01/11 00:22:58;;;;;;;190.60;96.20;;;;;;;-11.18;66.25;98332.02;105272;1267;96001;-75
2024/01/11 00:25:26;;;;;;;215.30;98.80;;;;;;;-11.07;66.26;98333.91;105150;1257;95937;-75
2024/01/11 00:27:54;;;;;;;213.00;90.40;;;;;;;-11.06;66.23;98323.95;105032;1256;109394;-75
2024/01/11 00:30:23;;;;;;;181.90;84.40;;;;;;;-11.07;66.13;98319.44;105066;1266;102127;-76
2024/01/11 00:32:51;;;;;;;186.30;84.20;;;;;;;-11.09;66.04;98311.88;105075;1257;107348;-76
2024/01/11 00:35:18;;;;;;;166.00;84.00;;;;;;;-11.15;65.99;98299.27;104934;1255;97160;-75
2024/01/11 00:37:46;;;;;;;170.80;75.80;;;;;;;-11.13;66.00;98292.59;105032;1255;96665;-75
2024/01/11 00:40:14;;;;;;;146.70;76.40;;;;;;;-11.14;66.12;98287.60;104911;1256;108238;-76
2024/01/11 00:42:42;;;;;;;159.50;70.40;;;;;;;-11.16;66.20;98281.21;105163;1257;110575;-76
2024/01/11 00:45:09;;;;;;;157.30;70.30;;;;;;;-11.17;66.19;98274.50;104912;1257;107194;-75
2024/01/11 00:47:37;;;;;;;162.40;70.20;;;;;;;-11.17;66.29;98277.95;104952;1257;95834;-76
2024/01/11 00:50:06;;;;;;;148.00;76.50;;;;;;;-11.17;66.34;98275.16;104944;1266;96773;-75
2024/01/11 00:52:34;;;;;;;150.50;69.60;;;;;;;-11.19;66.37;98272.30;105060;1256;108200;-76
2024/01/11 00:55:02;;;;;;;146.60;66.50;;;;;;;-11.20;66.47;98268.52;105191;1260;109799;-75
2024/01/11 00:57:29;;;;;;;144.50;67.70;;;;;;;-11.22;66.50;98260.74;105266;1257;107279;-75
2024/01/11 00:59:57;;;;;;;151.50;68.40;;;;;;;-11.22;66.62;98263.02;105097;1257;97852;-75
2024/01/11 01:02:25;;;;;;;135.50;61.30;;;;;;;-11.17;66.72;98265.09;105029;1254;96798;-75
2024/01/11 01:04:53;;;;;;;122.50;64.70;;;;;;;-11.18;66.73;98268.27;105116;1257;109484;-76
2024/01/11 01:07:20;;;;;;;136.90;69.80;;;;;;;-11.21;66.58;98261.23;105201;1260;109090;-76
2024/01/11 01:09:48;;;;;;;150.30;64.90;;;;;;;-11.24;66.39;98258.95;104911;1267;108478;-77
2024/01/11 01:12:15;;;;;;;156.90;69.20;;;;;;;-11.24;66.53;98262.59;104957;1266;97266;-75
2024/01/11 01:14:43;;;;;;;164.10;70.10;;;;;;;-11.22;66.41;98263.91;104983;1257;98033;-76
2024/01/11 01:17:11;;;;;;;156.40;75.60;;;;;;;-11.25;66.54;98264.02;105002;1260;109633;-75
2024/01/11 01:19:39;;;;;;;165.60;70.50;;;;;;;-11.22;66.44;98259.73;105025;1252;109159;-76
2024/01/11 01:22:06;;;;;;;169.40;71.80;;;;;;;-11.21;66.36;98253.95;105247;1263;106799;-77
2024/01/11 01:24:34;;;;;;;167.10;76.20;;;;;;;-11.21;66.46;98260.20;105289;1257;96574;-76
2024/01/11 01:27:01;;;;;;;153.70;64.80;;;;;;;-11.24;66.36;98254.77;105130;1267;97430;-76
2024/01/11 01:29:29;;;;;;;137.90;61.90;;;;;;;-11.28;66.24;98249.87;104947;1257;110013;-76
2024/01/11 01:31:57;;;;;;;144.40;59.10;;;;;;;-11.27;66.27;98244.63;104939;1254;108952;-75
2024/01/11 01:34:24;;;;;;;137.10;57.20;;;;;;;-11.27;66.18;98247.92;104906;1256;106962;-76
2024/01/11 01:36:52;;;;;;;112.70;49.50;;;;;;;-11.34;66.06;98251.13;104957;1254;96564;-76
2024/01/11 01:39:20;;;;;;;129.20;53.50;;;;;;;-11.42;65.98;98248.63;104963;1257;96551;-75
2024/01/11 01:41:47;;;;;;;136.00;65.80;;;;;;;-11.41;66.04;98252.08;105277;1254;110153;-76
2024/01/11 01:44:15;;;;;;;138.00;59.60;;;;;;;-11.47;66.13;98249.54;104977;1257;110122;-75
2024/01/11 01:46:43;;;;;;;143.40;62.60;;;;;;;-11.47;66.18;98252.48;104952;1267;107113;-75
2024/01/11 01:49:12;;;;;;;122.30;60.30;;;;;;;-11.47;66.17;98245.17;105183;1257;96602;-76
2024/01/11 01:51:40;;;;;;;118.70;51.80;;;;;;;-11.45;66.23;98247.90;105022;1257;97871;-77
2024/01/11 01:54:07;;;;;;;133.80;54.50;;;;;;;-11.51;66.11;98247.77;104951;1273;110594;-76
2024/01/11 01:56:35;;;;;;;114.70;52.00;;;;;;;-11.56;66.10;98246.20;104958;1257;110067;-76
2024/01/11 01:59:05;;;;;;;115.60;49.60;;;;;;;-11.58;66.17;98242.25;104989;1266;107369;-76
2024/01/11 02:01:33;;;;;;;107.90;48.60;;;;;;;-11.55;66.38;98240.27;105014;1256;97157;-75
2024/01/11 02:04:01;;;;;;;117.40;50.90;;;;;;;-11.48;66.37;98236.36;104964;1257;97153;-76
2024/01/11 02:06:32;;;;;;;107.50;51.20;;;;;;;-11.47;66.35;98230.05;104971;1257;110046;-76
2024/01/11 02:09:02;;;;;;;101.80;43.90;;;;;;;-11.47;66.31;98228.65;105098;1257;110050;-75
2024/01/11 02:11:31;;;;;;;123.80;54.00;;;;;;;-11.54;66.24;98229.27;105040;1257;107771;-75
2024/01/11 02:14:00;;;;;;;124.70;54.20;;;;;;;-11.59;66.22;98237.82;104992;1257;97736;-76
2024/01/11 02:16:27;;;;;;;114.20;52.60;;;;;;;-11.59;66.29;98239.52;105033;1257;97057;-76
2024/01/11 02:18:55;;;;;;;110.80;52.80;;;;;;;-11.49;66.36;98235.71;104987;1254;102902;-76
2024/01/11 02:21:25;;;;;;;115.50;52.20;;;;;;;-11.46;66.33;98234.52;104956;1266;109874;-76
2024/01/11 02:24:04;;;;;;;101.00;53.70;;;;;;;-11.42;66.27;98234.92;104943;1257;107497;-76
2024/01/11 02:26:32;;;;;;;104.30;47.90;;;;;;;-11.41;66.22;98234.00;104974;1256;96568;-76
2024/01/11 02:29:00;;;;;;;102.80;47.70;;;;;;;-11.46;66.20;98231.58;104950;1254;97093;-76
2024/01/11 02:31:28;;;;;;;94.50;47.30;;;;;;;-11.52;66.13;98226.26;104984;1255;109243;-75
2024/01/11 02:33:57;;;;;;;104.50;47.80;;;;;;;-11.55;66.20;98224.80;105096;1266;109286;-75
2024/01/11 02:36:26;;;;;;;96.90;51.60;;;;;;;-11.55;66.16;98221.50;104970;1256;107316;-76
2024/01/11 02:38:54;;;;;;;102.10;45.80;;;;;;;-11.56;66.20;98227.77;105072;1267;96648;-76
2024/01/11 02:41:22;;;;;;;95.80;44.90;;;;;;;-11.57;66.07;98227.14;105172;1257;97006;-76
2024/01/11 02:43:50;;;;;;;92.40;42.70;;;;;;;-11.57;66.35;98222.80;104984;1269;110887;-76
2024/01/11 02:46:18;;;;;;;93.70;42.90;;;;;;;-11.51;66.44;98223.09;104951;1257;109010;-76
2024/01/11 02:48:46;;;;;;;88.20;40.00;;;;;;;-11.48;66.28;98222.14;104942;1254;107318;-76
2024/01/11 02:51:13;;;;;;;95.80;43.70;;;;;;;-11.50;66.20;98223.77;104916;1253;96760;-76
2024/01/11 02:53:41;;;;;;;105.60;47.30;;;;;;;-11.49;66.34;98224.08;104927;1260;96453;-75
2024/01/11 02:56:09;;;;;;;91.60;41.60;;;;;;;-11.52;66.17;98219.67;104981;1257;109764;-76
2024/01/11 02:58:36;;;;;;;88.40;47.80;;;;;;;-11.56;66.26;98211.62;104938;1254;109306;-76
2024/01/11 03:01:04;;;;;;;76.60;42.90;;;;;;;-11.57;66.28;98209.79;104949;1256;108898;-76
2024/01/11 03:03:32;;;;;;;74.80;40.10;;;;;;;-11.59;66.26;98206.02;104963;1257;97753;-76
2024/01/11 03:05:59;;;;;;;77.60;37.60;;;;;;;-11.57;66.24;98212.38;104976;1267;96491;-75
2024/01/11 03:08:27;;;;;;;73.90;36.90;;;;;;;-11.57;66.22;98218.61;104989;1264;109267;-76
2024/01/11 03:10:55;;;;;;;83.80;39.10;;;;;;;-11.56;66.24;98209.55;104982;1257;110110;-76
2024/01/11 03:13:24;;;;;;;70.90;39.30;;;;;;;-11.56;66.22;98200.36;104966;1253;107762;-75
2024/01/11 03:15:52;;;;;;;77.30;36.90;;;;;;;-11.58;66.19;98197.29;104936;1257;97188;-75
2024/01/11 03:18:19;;;;;;;78.00;36.30;;;;;;;-11.55;66.19;98202.91;104974;1258;97147;-75
2024/01/11 03:20:47;;;;;;;88.90;38.50;;;;;;;-11.51;66.33;98205.36;104944;1256;109772;-75
2024/01/11 03:23:14;;;;;;;71.30;37.90;;;;;;;-11.43;66.35;98210.10;104952;1257;108548;-76
2024/01/11 03:25:42;;;;;;;74.00;34.40;;;;;;;-11.50;66.02;98208.13;105023;1254;106548;-76
2024/01/11 03:28:10;;;;;;;78.40;33.60;;;;;;;-11.52;66.00;98208.55;104944;1257;97444;-76
2024/01/11 03:30:37;;;;;;;75.10;35.70;;;;;;;-11.59;66.01;98211.73;105003;1254;97851;-75
2024/01/11 03:33:05;;;;;;;66.40;36.20;;;;;;;-11.60;66.06;98205.73;105158;1254;109758;-75
2024/01/11 03:35:33;;;;;;;71.30;34.00;;;;;;;-11.61;66.07;98208.02;104979;1266;109154;-75
2024/01/11 03:38:00;;;;;;;71.40;33.60;;;;;;;-11.55;66.19;98208.67;104997;1257;108384;-75
2024/01/11 03:40:28;;;;;;;72.70;34.10;;;;;;;-11.54;66.15;98208.10;105021;1257;96945;-76
2024/01/11 03:42:56;;;;;;;68.40;32.10;;;;;;;-11.57;66.12;98209.61;105041;1257;97968;-75
2024/01/11 03:45:23;;;;;;;71.30;33.50;;;;;;;-11.60;66.11;98211.80;105365;1269;109441;-76
2024/01/11 03:47:51;;;;;;;80.10;33.70;;;;;;;-11.64;65.87;98219.08;105288;1257;109562;-75
2024/01/11 03:50:19;;;;;;;73.80;34.80;;;;;;;-11.70;65.95;98215.09;104961;1267;108725;-75
2024/01/11 03:52:47;;;;;;;73.20;32.80;;;;;;;-11.73;65.88;98211.23;105013;1258;96794;-75
2024/01/11 03:55:15;;;;;;;78.90;36.50;;;;;;;-11.72;66.05;98208.61;104959;1256;97830;-75
2024/01/11 03:57:44;;;;;;;78.60;33.50;;;;;;;-11.66;66.07;98208.20;105003;1260;109566;-77
2024/01/11 04:00:12;;;;;;;86.80;35.30;;;;;;;-11.70;65.95;98200.86;105025;1254;109151;-75
2024/01/11 04:02:40;;;;;;;81.70;37.40;;;;;;;-11.76;66.03;98189.64;105027;1257;107401;-75
2024/01/11 04:05:08;;;;;;;90.10;37.90;;;;;;;-11.80;66.20;98192.06;104940;1257;97925;-75
2024/01/11 04:07:35;;;;;;;81.50;36.10;;;;;;;-11.71;66.25;98188.23;104958;1253;97192;-75
2024/01/11 04:10:03;;;;;;;81.40;37.10;;;;;;;-11.69;66.10;98181.39;105033;1276;111337;-75
2024/01/11 04:12:31;;;;;;;72.60;33.80;;;;;;;-11.72;66.23;98176.66;104962;1256;109942;-75
2024/01/11 04:14:59;;;;;;;75.00;34.50;;;;;;;-11.67;66.49;98167.23;104927;1257;107826;-75
2024/01/11 04:17:26;;;;;;;79.00;35.20;;;;;;;-11.65;66.45;98165.27;104940;1256;96666;-75
2024/01/11 04:19:54;;;;;;;75.30;34.80;;;;;;;-11.69;66.45;98162.63;104939;1253;97434;-75
2024/01/11 04:22:22;;;;;;;69.20;31.80;;;;;;;-11.68;66.48;98167.10;104948;1257;109864;-74
2024/01/11 04:24:50;;;;;;;71.70;36.40;;;;;;;-11.72;66.29;98162.23;104947;1254;109026;-76
2024/01/11 04:27:17;;;;;;;76.50;36.80;;;;;;;-11.83;66.24;98160.05;104946;1257;109011;-75
2024/01/11 04:29:45;;;;;;;82.00;39.60;;;;;;;-11.86;66.38;98162.63;104986;1257;96552;-75
2024/01/11 04:32:12;;;;;;;90.40;40.10;;;;;;;-11.88;66.40;98174.14;104997;1258;97102;-75
2024/01/11 04:34:40;;;;;;;92.00;41.10;;;;;;;-11.87;66.48;98168.36;105047;1256;110645;-75
2024/01/11 04:37:08;;;;;;;91.50;43.20;;;;;;;-11.78;66.61;98172.72;104971;1256;108766;-74
2024/01/11 04:39:35;;;;;;;106.20;44.70;;;;;;;-11.71;66.53;98181.47;104953;1257;106572;-75
2024/01/11 04:42:04;;;;;;;99.10;47.80;;;;;;;-11.66;66.40;98177.45;105053;1259;96548;-75
2024/01/11 04:44:32;;;;;;;179.60;83.10;;;;;;;-11.71;66.40;98173.48;104963;1257;97071;-75
2024/01/11 04:46:59;;;;;;;136.50;66.70;;;;;;;-11.77;66.40;98168.67;105012;1256;109667;-76
2024/01/11 04:49:27;;;;;;;109.20;50.00;;;;;;;-11.73;66.33;98169.40;104972;1267;108997;-75
2024/01/11 04:51:55;;;;;;;95.90;45.10;;;;;;;-11.77;66.29;98175.81;105083;1267;106765;-75
2024/01/11 04:54:22;;;;;;;92.10;48.80;;;;;;;-11.79;66.22;98174.33;105004;1269;97444;-75
2024/01/11 04:56:50;;;;;;;95.00;44.90;;;;;;;-11.79;66.24;98172.42;105221;1256;98123;-75
2024/01/11 04:59:18;;;;;;;93.00;45.90;;;;;;;-11.74;66.35;98169.98;105158;1256;109757;-75
2024/01/11 05:01:47;;;;;;;91.00;44.30;;;;;;;-11.74;66.40;98170.66;105036;1256;109150;-75
2024/01/11 05:04:14;;;;;;;99.80;48.10;;;;;;;-11.79;66.19;98167.05;104987;1256;108466;-76
2024/01/11 05:06:42;;;;;;;97.20;45.60;;;;;;;-11.88;66.34;98161.13;104987;1267;96796;-75
2024/01/11 05:09:10;;;;;;;95.90;43.50;;;;;;;-11.88;66.76;98154.86;104965;1254;98130;-75
2024/01/11 05:11:37;;;;;;;95.30;41.10;;;;;;;-11.86;66.71;98146.45;104995;1258;109268;-75
2024/01/11 05:14:05;;;;;;;104.50;44.60;;;;;;;-11.79;66.85;98150.89;104955;1266;109894;-75
2024/01/11 05:16:35;;;;;;;104.50;45.90;;;;;;;-11.72;66.84;98150.06;104946;1257;108082;-74
2024/01/11 05:19:03;;;;;;;116.50;50.90;;;;;;;-11.72;66.66;98147.64;104976;1257;97775;-75
2024/01/11 05:21:30;;;;;;;180.30;82.60;;;;;;;-11.83;66.72;98137.67;104976;1258;96946;-74
2024/01/11 05:23:58;;;;;;;187.10;87.80;;;;;;;-11.81;66.97;98135.67;104936;1256;109603;-74
2024/01/11 05:26:26;;;;;;;158.40;69.00;;;;;;;-11.73;67.04;98138.52;105014;1257;109239;-74
2024/01/11 05:28:54;;;;;;;139.00;64.10;;;;;;;-11.72;67.02;98134.46;104972;1254;107788;-75
2024/01/11 05:31:22;;;;;;;140.90;64.20;;;;;;;-11.79;66.85;98126.77;104942;1256;97131;-75
2024/01/11 05:33:49;;;;;;;139.70;60.30;;;;;;;-11.86;66.96;98119.20;104969;1257;96988;-75
2024/01/11 05:36:17;;;;;;;146.60;62.30;;;;;;;-11.90;66.86;98114.85;105056;1256;110201;-74
2024/01/11 05:38:46;;;;;;;123.10;57.60;;;;;;;-11.86;66.97;98128.77;105022;1259;109507;-75
2024/01/11 05:41:14;;;;;;;129.30;55.30;;;;;;;-11.85;67.05;98129.45;104940;1256;107433;-74
2024/01/11 05:43:42;;;;;;;121.10;51.20;;;;;;;-11.77;67.23;98128.95;104951;1257;96639;-75
2024/01/11 05:46:10;;;;;;;112.00;50.60;;;;;;;-11.73;67.26;98120.44;104990;1255;97332;-74
2024/01/11 05:48:38;;;;;;;123.20;51.90;;;;;;;-11.73;67.18;98106.89;105161;1256;110056;-75
2024/01/11 05:51:05;;;;;;;144.70;58.60;;;;;;;-11.69;67.07;98100.30;105088;1257;108808;-75
2024/01/11 05:53:35;;;;;;;143.50;60.40;;;;;;;-11.72;67.05;98102.88;104971;1257;108549;-74
2024/01/11 05:56:03;;;;;;;157.70;64.20;;;;;;;-11.75;66.94;98101.92;105047;1256;97795;-74
2024/01/11 05:58:31;;;;;;;149.80;64.20;;;;;;;-11.73;67.06;98101.67;104953;1267;97064;-75
2024/01/11 06:00:59;;;;;;;153.00;69.00;;;;;;;-11.69;67.03;98093.71;104948;1257;110666;-74
2024/01/11 06:03:28;;;;;;;148.00;71.10;;;;;;;-11.72;66.97;98082.04;104949;1257;100382;-73
2024/01/11 06:05:55;;;;;;;144.70;67.20;;;;;;;-11.75;66.99;98077.83;105001;1268;107577;-75
2024/01/11 06:08:23;;;;;;;144.00;63.10;;;;;;;-11.75;67.00;98066.55;104919;1256;97918;-74
2024/01/11 06:10:51;;;;;;;140.30;61.80;;;;;;;-11.73;67.09;98064.52;105056;1253;97856;-74
2024/01/11 06:13:19;;;;;;;135.80;60.20;;;;;;;-11.66;67.17;98067.37;105036;1256;102790;-75
2024/01/11 06:15:47;;;;;;;133.20;58.90;;;;;;;-11.58;67.16;98074.02;105260;1257;108793;-75
2024/01/11 06:18:14;;;;;;;127.60;58.80;;;;;;;-11.51;67.04;98069.20;105138;1268;107534;-74
2024/01/11 06:20:42;;;;;;;130.20;57.10;;;;;;;-11.48;67.21;98061.44;104942;1256;97143;-75
2024/01/11 06:23:10;;;;;;;126.70;56.60;;;;;;;-11.41;67.04;98054.23;104961;1254;96759;-75
2024/01/11 06:25:38;;;;;;;124.60;60.70;;;;;;;-11.50;66.82;98053.19;104950;1256;110724;-75
2024/01/11 06:28:06;;;;;;;111.20;54.40;;;;;;;-11.57;66.77;98052.44;104937;1257;108830;-75
2024/01/11 06:30:34;;;;;;;106.10;53.50;;;;;;;-11.57;67.10;98052.25;104940;1256;107013;-75
2024/01/11 06:33:03;;;;;;;117.20;61.10;;;;;;;-11.50;67.27;98048.85;104946;1254;96789;-74
2024/01/11 06:35:31;;;;;;;128.80;58.50;;;;;;;-11.42;67.29;98051.66;105000;1254;98411;-74
2024/01/11 06:37:58;;;;;;;117.60;59.80;;;;;;;-11.42;67.11;98053.05;104964;1268;109841;-74
2024/01/11 06:40:26;;;;;;;122.90;59.00;;;;;;;-11.32;67.35;98049.01;104996;1257;101767;-75
2024/01/11 06:42:54;;;;;;;131.30;61.00;;;;;;;-11.25;67.22;98039.52;104963;1257;100511;-75
2024/01/11 06:45:21;;;;;;;134.50;61.70;;;;;;;-11.26;67.10;98044.95;104954;1256;97549;-74
2024/01/11 06:47:49;;;;;;;129.00;63.10;;;;;;;-11.34;66.99;98045.41;104976;1254;98251;-74
2024/01/11 06:50:17;;;;;;;134.60;60.70;;;;;;;-11.37;66.94;98045.73;104999;1254;109816;-74
2024/01/11 06:52:45;;;;;;;129.00;59.90;;;;;;;-11.35;67.01;98048.73;104958;1257;108420;-75
2024/01/11 06:55:12;;;;;;;120.40;59.50;;;;;;;-11.40;66.99;98044.27;105013;1259;106840;-74
2024/01/11 06:57:40;;;;;;;117.70;59.00;;;;;;;-11.39;67.33;98053.77;105030;1256;97399;-74
2024/01/11 07:00:08;;;;;;;154.30;66.70;;;;;;;-11.33;67.18;98067.25;105121;1256;97343;-75
2024/01/11 07:02:36;;;;;;;146.40;66.30;;;;;;;-11.32;67.19;98067.91;104949;1254;109815;-74
2024/01/11 07:05:04;;;;;;;156.80;64.20;;;;;;;-11.32;67.06;98056.80;104967;1256;108572;-74
2024/01/11 07:07:32;;;;;;;150.10;69.70;;;;;;;-11.34;67.16;98052.17;104933;1256;107868;-74
2024/01/11 07:10:00;;;;;;;146.10;68.90;;;;;;;-11.19;67.56;98034.55;104956;1256;96538;-74
2024/01/11 07:12:28;;;;;;;145.50;63.30;;;;;;;-11.12;67.18;98033.06;108846;1252;94613;-75
2024/01/11 07:14:56;;;;;;;146.00;63.80;;;;;;;-11.20;67.14;98034.94;108884;1252;108953;-75
2024/01/11 07:17:24;;;;;;;149.20;71.50;;;;;;;-11.20;67.03;98037.56;108898;1253;100115;-75
2024/01/11 07:19:51;;;;;;;162.00;70.40;;;;;;;-11.21;67.04;98034.12;108718;1252;107634;-75
2024/01/11 07:22:19;;;;;;;154.90;73.60;;;;;;;-11.19;67.09;98024.83;108799;1253;94245;-75
2024/01/11 07:24:47;;;;;;;161.60;73.00;;;;;;;-11.16;67.37;98019.87;108834;1252;95667;-75
2024/01/11 07:27:14;;;;;;;167.80;79.90;;;;;;;-11.17;67.24;98017.63;108831;1252;110101;-75
2024/01/11 07:29:42;;;;;;;197.60;94.40;;;;;;;-11.13;67.31;98015.73;108807;1253;109176;-75
2024/01/11 07:32:09;;;;;;;187.80;94.40;;;;;;;-11.08;67.47;98001.23;108840;1252;106746;-75
2024/01/11 07:34:37;;;;;;;184.70;93.70;;;;;;;-10.93;67.73;97988.44;108842;1253;94204;-75
2024/01/11 07:37:05;;;;;;;186.50;91.70;;;;;;;-10.77;67.58;97981.14;108839;1252;94628;-75
2024/01/11 07:39:32;;;;;;;201.50;101.20;;;;;;;-10.78;67.32;97991.30;108828;1252;110195;-75
2024/01/11 07:42:00;;;;;;;210.50;107.70;;;;;;;-10.73;67.44;97992.11;108849;1252;109240;-75
2024/01/11 07:44:28;;;;;;;224.80;109.70;;;;;;;-10.65;67.58;97986.70;108731;1253;107001;-75
2024/01/11 07:46:56;;;;;;;240.50;129.00;;;;;;;-10.63;67.87;97976.70;108798;1252;94220;-75
2024/01/11 07:49:23;;;;;;;267.30;128.50;;;;;;;-10.63;67.88;97982.45;108856;1252;94702;-75
2024/01/11 07:51:51;;;;;;;255.30;126.20;;;;;;;-10.49;68.12;97982.00;108864;1253;110091;-76
2024/01/11 07:54:18;;;;;;;240.60;134.30;;;;;;;-10.36;68.26;97974.80;108857;1253;108374;-75
2024/01/11 07:56:46;;;;;;;226.70;119.60;;;;;;;-10.40;68.15;97976.54;108873;1252;107990;-75
2024/01/11 07:59:14;;;;;;;240.70;125.00;;;;;;;-10.43;68.23;97973.56;108831;1252;94305;-76
2024/01/11 08:01:42;;;;;;;201.10;122.20;;;;;;;-10.41;68.38;97959.05;108863;1252;94662;-75
2024/01/11 08:04:09;;;;;;;211.00;125.60;;;;;;;-10.34;68.58;97959.20;108835;1252;109008;-75
2024/01/11 08:06:37;;;;;;;217.40;116.70;;;;;;;-10.18;68.92;97952.91;108901;1252;101437;-75
2024/01/11 08:09:05;;;;;;;178.30;104.10;;;;;;;-9.99;68.90;97948.50;108785;1253;108130;-75
2024/01/11 08:11:33;;;;;;;163.00;87.60;;;;;;;-9.85;69.06;97949.41;108802;1252;94190;-75
2024/01/11 08:14:00;;;;;;;153.00;83.10;;;;;;;-9.70;69.16;97943.98;108798;1253;94661;-76
2024/01/11 08:16:28;;;;;;;172.90;103.10;;;;;;;-9.58;69.18;97946.68;108933;1253;110987;-75
2024/01/11 08:18:56;;;;;;;175.70;90.60;;;;;;;-9.45;69.46;97955.82;108867;1253;108174;-75
2024/01/11 08:21:24;;;;;;;157.70;90.60;;;;;;;-9.35;69.41;97960.92;108816;1252;107186;-76
2024/01/11 08:23:52;;;;;;;160.20;92.90;;;;;;;-9.25;69.63;97969.80;108833;1252;94231;-75
2024/01/11 08:26:19;;;;;;;168.90;91.00;;;;;;;-9.09;69.77;97966.03;108894;1252;94155;-76
2024/01/11 08:28:47;;;;;;;174.60;92.60;;;;;;;-8.88;70.05;97978.40;108816;1252;109567;-75
2024/01/11 08:31:15;;;;;;;177.30;101.40;;;;;;;-8.71;70.14;97963.95;108809;1253;108350;-76
2024/01/11 08:33:42;;;;;;;177.00;102.70;;;;;;;-8.67;69.92;97967.05;108769;1253;107254;-75
2024/01/11 08:36:11;;;;;;;173.80;103.40;;;;;;;-8.57;70.28;97957.25;108773;1252;94207;-76
2024/01/11 08:38:40;;;;;;;133.30;78.30;;;;;;;-8.46;70.50;97961.02;108842;1252;94314;-76
2024/01/11 08:41:08;;;;;;;135.50;78.80;;;;;;;-8.37;70.56;97958.83;108881;1252;110503;-76
2024/01/11 08:43:35;;;;;;;113.40;67.10;;;;;;;-8.29;70.64;97952.79;108849;1252;108212;-76
2024/01/11 08:46:03;;;;;;;119.40;69.20;;;;;;;-8.22;70.84;97961.46;108827;1252;99190;-76
2024/01/11 08:48:31;;;;;;;112.80;65.70;;;;;;;-8.15;70.79;97965.63;108868;1253;94220;-76
2024/01/11 08:50:58;;;;;;;145.20;82.30;;;;;;;-8.06;70.99;97959.69;108847;1252;95867;-76
2024/01/11 08:53:26;;;;;;;170.80;100.40;;;;;;;-7.96;70.85;97959.14;108813;1253;109716;-76
2024/01/11 08:55:54;;;;;;;182.80;103.90;;;;;;;-7.80;71.08;97954.80;108849;1253;101479;-76
2024/01/11 08:58:21;;;;;;;180.70;105.80;;;;;;;-7.61;71.36;97938.52;108857;1253;99814;-76
2024/01/11 09:00:49;;;;;;;184.70;112.00;;;;;;;-7.40;71.49;97934.02;108819;1253;94601;-76
2024/01/11 09:03:17;;;;;;;224.20;136.40;;;;;;;-7.19;71.57;97930.49;108782;1252;119691;-74
2024/01/11 09:05:44;;;;;;;240.30;155.90;;;;;;;-6.96;71.70;97929.15;108822;1253;102145;-74
2024/01/11 09:08:12;;;;;;;227.00;143.80;;;;;;;-6.74;71.62;97923.11;108875;1252;101433;-74
2024/01/11 09:10:41;;;;;;;212.20;127.00;;;;;;;-6.56;71.55;97923.02;108798;1252;99443;-74
2024/01/11 09:13:09;;;;;;;203.80;121.60;;;;;;;-6.36;71.64;97929.33;108794;1252;94212;-74
2024/01/11 09:15:36;;;;;;;172.90;103.70;;;;;;;-6.24;71.55;97928.25;108832;1252;94317;-74
2024/01/11 09:18:04;;;;;;;165.70;95.40;;;;;;;-6.21;71.41;97931.41;108840;1253;102422;-74
2024/01/11 09:20:33;;;;;;;149.40;84.70;;;;;;;-6.16;71.59;97935.27;108868;1253;101436;-75
2024/01/11 09:23:03;;;;;;;128.20;68.90;;;;;;;-6.02;71.70;97932.65;108836;1252;99520;-74
2024/01/11 09:25:31;;;;;;;139.60;75.60;;;;;;;-5.90;71.62;97927.85;108818;1253;94168;-75
2024/01/11 09:28:00;;;;;;;144.10;77.10;;;;;;;-5.84;71.66;97923.41;108845;1252;94447;-77
2024/01/11 09:30:27;;;;;;;132.40;72.30;;;;;;;-5.79;71.71;97920.77;108828;1252;102271;-76
2024/01/11 09:32:55;;;;;;;147.40;81.10;;;;;;;-5.71;71.81;97918.52;108771;1253;101553;-77
2024/01/11 09:35:24;;;;;;;136.30;74.10;;;;;;;-5.61;71.86;97907.54;108815;1252;107037;-77
2024/01/11 09:37:52;;;;;;;137.50;70.60;;;;;;;-5.54;71.97;97893.21;108786;1253;94473;-78
2024/01/11 09:40:19;;;;;;;136.50;72.00;;;;;;;-5.45;72.16;97889.29;108859;1252;94353;-77
2024/01/11 09:42:48;;;;;;;132.70;70.40;;;;;;;-5.35;72.29;97894.09;108848;1253;102393;-76
2024/01/11 09:45:17;;;;;;;168.80;102.20;;;;;;;-5.25;72.37;97893.25;108847;1253;101130;-77
2024/01/11 09:47:46;;;;;;;195.00;122.40;;;;;;;-5.15;72.18;97900.27;108825;1253;99887;-77
2024/01/11 09:50:17;;;;;;;172.50;104.90;;;;;;;-5.06;72.12;97908.43;108790;1254;95113;-77
2024/01/11 09:52:49;;;;;;;202.10;109.90;;;;;;;-4.96;72.29;97904.98;108889;1252;94359;-77
2024/01/11 09:55:20;;;;;;;;;;;;;;;-4.86;72.31;97903.38;108456;1253;110930;-77
2024/01/11 09:57:49;;;;;;;201.30;92.10;;;;;;;-4.78;72.33;97909.01;108874;1253;101533;-77
2024/01/11 10:00:24;;;;;;;169.30;81.30;;;;;;;-4.71;72.12;97914.67;108830;1252;100129;-76
2024/01/11 10:02:51;;;;;;;141.30;73.10;;;;;;;-4.62;72.16;97915.45;108792;1253;94200;-78
2024/01/11 10:05:19;;;;;;;138.20;71.90;;;;;;;-4.53;72.25;97914.48;108905;1253;94273;-77
2024/01/11 10:07:47;;;;;;;128.60;65.10;;;;;;;-4.48;72.27;97904.62;108841;1252;102373;-77
2024/01/11 10:10:16;;;;;;;117.50;59.70;;;;;;;-4.39;72.37;97890.30;108782;1253;101603;-77
2024/01/11 10:12:44;;;;;;;124.70;62.00;;;;;;;-4.27;72.32;97877.13;108806;1253;99023;-77
2024/01/11 10:15:11;;;;;;;126.30;62.30;;;;;;;-4.11;72.36;97877.07;108801;1254;94342;-78
2024/01/11 10:17:46;;;;;;;107.60;54.60;;;;;;;-3.96;72.17;97878.80;108879;1252;94294;-77
2024/01/11 10:20:14;;;;;;;102.60;52.10;;;;;;;-3.82;71.76;97881.32;108993;1252;102425;-76
2024/01/11 10:22:42;;;;;;;114.30;54.60;;;;;;;-3.69;71.78;97878.42;108880;1252;101568;-77
2024/01/11 10:25:11;;;;;;;115.80;58.10;;;;;;;-3.55;71.81;97875.98;108835;1254;100094;-77
2024/01/11 10:27:42;;;;;;;104.80;52.20;;;;;;;-3.43;71.40;97872.27;108873;1252;95641;-77
2024/01/11 10:30:12;;;;;;;102.10;52.00;;;;;;;-3.30;71.34;97874.66;108832;1253;94244;-77
2024/01/11 10:32:40;;;;;;;101.20;51.30;;;;;;;-3.18;71.22;97867.58;108849;1252;102234;-74
2024/01/11 10:35:08;;;;;;;100.20;51.10;;;;;;;-3.07;70.97;97867.14;108875;1253;100413;-75
2024/01/11 10:37:38;;;;;;;104.30;49.70;;;;;;;-2.97;71.11;97863.16;108835;1252;100128;-75
2024/01/11 10:40:10;;;;;;;77.30;40.40;;;;;;;-2.85;70.75;97852.79;108823;1252;94197;-74
2024/01/11 10:42:43;;;;;;;84.30;43.40;;;;;;;-2.74;70.43;97852.44;108896;1253;94376;-75
2024/01/11 10:45:19;;;;;;;84.60;43.90;;;;;;;-2.64;70.49;97849.18;108885;1252;100679;-74
2024/01/11 10:47:57;;;;;;;70.70;36.40;;;;;;;-2.55;70.11;97838.73;108859;1253;109643;-75
2024/01/11 10:50:26;;;;;;;72.40;38.60;;;;;;;-2.47;69.52;97827.56;108914;1252;100079;-75
2024/01/11 10:53:06;;;;;;;69.90;38.10;;;;;;;-2.38;69.35;97826.92;108860;1253;94298;-75
2024/01/11 10:55:35;;;;;;;66.30;32.60;;;;;;;-2.33;68.12;97826.64;108867;1252;94575;-73